Time;durP1;ratioP1;P1;durP2;ratioP2;P2;SDS_P1;SDS_P2;PMS_P1;PMS_P2;Temp;Humidity;BMP_temperature;BMP_pressure;BME280_temperature;BME280_humidity;BME280_pressure;Samples;Min_cycle;Max_cycle;Signal;HPM_P1;HPM_P2
2023/03/09 00:00:54;;;;;;;7.60;3.55;;;;;;;;;;2072547;28;20037;-78
2023/03/09 00:02:13;;;;;;;7.38;4.00;;;;;;;;;;2080499;28;20034;-79
2023/03/09 00:03:33;;;;;;;5.68;3.63;;;;;;;;;;2076277;28;20037;-78
2023/03/09 00:04:52;;;;;;;8.00;3.78;;;;;;;;;;2072111;28;20025;-79
2023/03/09 00:06:11;;;;;;;4.70;3.38;;;;;;;;;;2065232;28;20026;-79
2023/03/09 00:07:30;;;;;;;8.90;4.10;;;;;;;;;;2070866;28;20025;-79
2023/03/09 00:08:50;;;;;;;9.25;3.65;;;;;;;;;;2069229;28;20022;-78
2023/03/09 00:10:14;;;;;;;7.55;4.20;;;;;;;;;;2072752;28;20048;-78
2023/03/09 00:11:33;;;;;;;7.95;3.53;;;;;;;;;;2072497;28;20025;-78
2023/03/09 00:12:52;;;;;;;3.88;3.13;;;;;;;;;;2073846;28;20052;-77
2023/03/09 00:14:11;;;;;;;7.65;3.53;;;;;;;;;;2071468;28;20064;-78
2023/03/09 00:15:30;;;;;;;6.78;3.53;;;;;;;;;;2074955;28;20034;-79
2023/03/09 00:16:50;;;;;;;5.15;3.53;;;;;;;;;;2072256;28;20033;-78
2023/03/09 00:18:10;;;;;;;7.45;3.38;;;;;;;;;;2072094;28;20033;-77
2023/03/09 00:19:30;;;;;;;7.90;3.58;;;;;;;;;;2072454;28;20026;-78
2023/03/09 00:20:49;;;;;;;8.82;3.97;;;;;;;;;;2075300;28;20025;-78
2023/03/09 00:22:09;;;;;;;3.92;3.10;;;;;;;;;;2076138;28;20025;-78
2023/03/09 00:23:27;;;;;;;6.63;3.72;;;;;;;;;;2075842;28;20494;-78
2023/03/09 00:24:46;;;;;;;5.85;3.38;;;;;;;;;;2079794;28;20493;-78
2023/03/09 00:26:06;;;;;;;8.85;4.00;;;;;;;;;;2066746;28;20034;-78
2023/03/09 00:27:24;;;;;;;6.88;3.83;;;;;;;;;;2069823;28;20021;-79
2023/03/09 00:28:43;;;;;;;10.68;3.75;;;;;;;;;;2074458;28;20124;-78
2023/03/09 00:30:03;;;;;;;5.30;3.15;;;;;;;;;;2067020;28;20670;-79
2023/03/09 00:31:22;;;;;;;7.68;4.10;;;;;;;;;;2070664;28;20500;-79
2023/03/09 00:32:41;;;;;;;5.75;3.65;;;;;;;;;;2066688;28;20156;-78
2023/03/09 00:34:00;;;;;;;10.38;4.18;;;;;;;;;;2069296;28;20030;-79
2023/03/09 00:35:19;;;;;;;7.40;4.03;;;;;;;;;;2072969;28;20021;-78
2023/03/09 00:36:39;;;;;;;6.25;3.45;;;;;;;;;;2066391;28;20037;-78
2023/03/09 00:37:58;;;;;;;6.22;3.67;;;;;;;;;;2069068;28;20506;-78
2023/03/09 00:39:16;;;;;;;8.00;3.83;;;;;;;;;;2074518;28;20057;-78
2023/03/09 00:40:36;;;;;;;6.88;3.90;;;;;;;;;;2071839;28;20386;-78
2023/03/09 00:41:55;;;;;;;6.47;4.68;;;;;;;;;;2064165;28;20030;-79
2023/03/09 00:43:14;;;;;;;14.73;5.80;;;;;;;;;;2061359;28;20022;-78
2023/03/09 00:44:33;;;;;;;15.50;5.30;;;;;;;;;;2072262;28;20276;-78
2023/03/09 00:45:52;;;;;;;9.50;4.07;;;;;;;;;;2075812;28;20486;-79
2023/03/09 00:47:11;;;;;;;10.32;4.07;;;;;;;;;;2072972;28;20374;-79
2023/03/09 00:48:31;;;;;;;6.30;3.70;;;;;;;;;;2066134;28;20510;-79
2023/03/09 00:49:50;;;;;;;7.72;4.20;;;;;;;;;;2069649;28;20041;-79
2023/03/09 00:51:09;;;;;;;10.07;3.92;;;;;;;;;;2072526;28;20030;-79
2023/03/09 00:52:28;;;;;;;8.52;4.00;;;;;;;;;;2063199;28;20042;-78
2023/03/09 00:53:48;;;;;;;11.18;4.75;;;;;;;;;;2068854;28;20478;-79
2023/03/09 00:55:07;;;;;;;9.48;4.18;;;;;;;;;;2070506;28;20022;-79
2023/03/09 00:56:27;;;;;;;9.20;4.55;;;;;;;;;;2070157;28;20104;-78
2023/03/09 00:57:46;;;;;;;7.60;4.03;;;;;;;;;;2062982;28;20152;-77
2023/03/09 00:59:05;;;;;;;8.20;4.47;;;;;;;;;;2064110;28;20164;-78
2023/03/09 01:00:24;;;;;;;7.43;3.67;;;;;;;;;;2073910;28;20014;-78
2023/03/09 01:01:43;;;;;;;7.57;4.70;;;;;;;;;;2073336;28;20067;-78
2023/03/09 01:03:02;;;;;;;7.90;3.88;;;;;;;;;;2063934;28;20038;-77
2023/03/09 01:04:21;;;;;;;8.05;4.63;;;;;;;;;;2069830;28;20034;-78
2023/03/09 01:05:40;;;;;;;10.40;4.57;;;;;;;;;;2077561;28;20033;-78
2023/03/09 01:06:59;;;;;;;5.28;4.32;;;;;;;;;;2074121;28;20033;-79
2023/03/09 01:08:18;;;;;;;9.35;4.40;;;;;;;;;;2068204;28;20530;-77
2023/03/09 01:09:37;;;;;;;6.95;3.88;;;;;;;;;;2070329;28;20120;-80
2023/03/09 01:10:56;;;;;;;7.57;3.70;;;;;;;;;;2071532;28;20112;-77
2023/03/09 01:12:16;;;;;;;7.75;4.53;;;;;;;;;;2070823;28;20572;-78
2023/03/09 01:13:35;;;;;;;7.95;4.43;;;;;;;;;;2075544;28;20077;-77
2023/03/09 01:14:55;;;;;;;6.43;4.18;;;;;;;;;;2073710;28;20038;-77
2023/03/09 01:16:14;;;;;;;7.80;4.57;;;;;;;;;;2080542;28;20013;-79
2023/03/09 01:17:33;;;;;;;6.03;4.20;;;;;;;;;;2081782;28;20132;-78
2023/03/09 01:18:52;;;;;;;7.93;4.60;;;;;;;;;;2078319;28;20018;-78
2023/03/09 01:20:11;;;;;;;7.85;5.55;;;;;;;;;;2070200;28;20050;-79
2023/03/09 01:21:30;;;;;;;12.18;5.82;;;;;;;;;;2078987;28;20092;-78
2023/03/09 01:22:50;;;;;;;7.78;5.13;;;;;;;;;;2085326;28;20032;-76
2023/03/09 01:24:09;;;;;;;11.32;5.38;;;;;;;;;;2075055;28;20029;-77
2023/03/09 01:25:28;;;;;;;12.30;6.03;;;;;;;;;;2072355;28;20045;-79
2023/03/09 01:26:46;;;;;;;9.43;5.80;;;;;;;;;;2079149;28;20130;-77
2023/03/09 01:28:05;;;;;;;8.48;5.15;;;;;;;;;;2078959;28;20029;-78
2023/03/09 01:29:24;;;;;;;12.38;5.20;;;;;;;;;;2077023;28;20045;-78
2023/03/09 01:30:43;;;;;;;13.40;5.18;;;;;;;;;;2066448;28;20487;-79
2023/03/09 01:32:02;;;;;;;8.25;4.85;;;;;;;;;;2070544;28;20026;-78
2023/03/09 01:33:21;;;;;;;6.13;4.85;;;;;;;;;;2077289;28;20441;-78
2023/03/09 01:34:40;;;;;;;9.05;5.03;;;;;;;;;;2080931;28;20025;-78
2023/03/09 01:35:59;;;;;;;14.90;6.40;;;;;;;;;;2081454;28;20116;-77
2023/03/09 01:37:18;;;;;;;15.85;5.40;;;;;;;;;;2080234;28;20022;-77
2023/03/09 01:38:38;;;;;;;11.98;5.22;;;;;;;;;;2067055;28;20033;-78
2023/03/09 01:39:57;;;;;;;13.55;5.82;;;;;;;;;;2062534;28;20042;-77
2023/03/09 01:41:17;;;;;;;8.75;5.70;;;;;;;;;;2062644;28;20018;-77
2023/03/09 01:42:36;;;;;;;9.85;5.63;;;;;;;;;;2064963;28;20049;-77
2023/03/09 01:43:55;;;;;;;13.13;6.55;;;;;;;;;;2067114;28;20464;-80
2023/03/09 01:45:17;;;;;;;10.90;6.18;;;;;;;;;;2072305;28;20404;-77
2023/03/09 01:46:50;;;;;;;14.20;6.00;;;;;;;;;;2071454;28;20474;-78
2023/03/09 01:48:09;;;;;;;13.45;5.82;;;;;;;;;;2061245;28;20046;-78
2023/03/09 01:49:42;;;;;;;8.75;5.57;;;;;;;;;;2068111;28;20083;-79
2023/03/09 01:51:01;;;;;;;13.98;6.13;;;;;;;;;;2064833;28;20041;-79
2023/03/09 01:52:24;;;;;;;8.63;5.53;;;;;;;;;;2068569;28;20029;-78
2023/03/09 01:53:44;;;;;;;15.68;5.85;;;;;;;;;;2062680;28;20018;-78
2023/03/09 01:55:04;;;;;;;13.88;6.32;;;;;;;;;;2068794;28;20025;-78
2023/03/09 01:56:24;;;;;;;12.20;5.45;;;;;;;;;;2063673;28;20475;-79
2023/03/09 01:57:46;;;;;;;11.88;5.55;;;;;;;;;;2063537;28;20487;-78
2023/03/09 01:59:07;;;;;;;18.75;6.65;;;;;;;;;;2066096;28;20034;-77
2023/03/09 02:00:26;;;;;;;15.65;6.15;;;;;;;;;;2064691;28;20121;-78
2023/03/09 02:01:45;;;;;;;15.60;6.03;;;;;;;;;;2069542;28;20279;-78
2023/03/09 02:03:04;;;;;;;12.48;5.82;;;;;;;;;;2070163;28;20030;-78
2023/03/09 02:04:27;;;;;;;10.80;5.82;;;;;;;;;;2062718;28;20027;-77
2023/03/09 02:05:51;;;;;;;11.93;5.85;;;;;;;;;;2068060;28;20112;-78
2023/03/09 02:07:12;;;;;;;11.95;6.50;;;;;;;;;;2062799;28;20026;-78
2023/03/09 02:08:31;;;;;;;14.48;6.00;;;;;;;;;;2060123;28;20426;-77
2023/03/09 02:09:58;;;;;;;12.00;6.15;;;;;;;;;;2063858;28;20577;-77
2023/03/09 02:11:18;;;;;;;10.77;6.05;;;;;;;;;;2065724;28;20157;-77
2023/03/09 02:12:38;;;;;;;14.68;6.22;;;;;;;;;;2062148;28;20501;-77
2023/03/09 02:13:58;;;;;;;10.32;5.80;;;;;;;;;;2069879;28;20112;-77
2023/03/09 02:15:17;;;;;;;9.77;6.25;;;;;;;;;;2072167;28;20126;-77
2023/03/09 02:16:36;;;;;;;15.40;6.05;;;;;;;;;;2064131;28;20026;-77
2023/03/09 02:17:55;;;;;;;9.40;6.00;;;;;;;;;;2066644;28;20045;-77
2023/03/09 02:19:22;;;;;;;14.60;5.40;;;;;;;;;;2072226;28;20089;-77
2023/03/09 02:20:41;;;;;;;14.93;5.43;;;;;;;;;;2071911;28;20506;-77
2023/03/09 02:22:00;;;;;;;13.20;6.32;;;;;;;;;;2068485;28;20133;-77
2023/03/09 02:23:22;;;;;;;10.18;5.65;;;;;;;;;;2062373;28;20615;-77
2023/03/09 02:25:00;;;;;;;9.95;5.85;;;;;;;;;;2075590;28;20390;-77
2023/03/09 02:26:29;;;;;;;13.45;5.82;;;;;;;;;;2080214;28;20045;-77
2023/03/09 02:27:49;;;;;;;12.55;5.80;;;;;;;;;;2076845;28;20512;-79
2023/03/09 02:29:09;;;;;;;7.90;5.85;;;;;;;;;;2071655;28;20037;-79
2023/03/09 02:30:30;;;;;;;10.50;6.03;;;;;;;;;;2071135;28;20033;-79
2023/03/09 02:31:48;;;;;;;9.30;6.07;;;;;;;;;;2064687;28;20549;-79
2023/03/09 02:33:12;;;;;;;12.82;5.95;;;;;;;;;;2061637;28;20042;-77
2023/03/09 02:34:31;;;;;;;10.82;6.00;;;;;;;;;;2072769;28;20044;-77
2023/03/09 02:35:50;;;;;;;12.77;6.45;;;;;;;;;;2070886;28;20033;-77
2023/03/09 02:37:22;;;;;;;10.32;6.28;;;;;;;;;;2074025;28;20045;-77
2023/03/09 02:38:41;;;;;;;7.05;3.85;;;;;;;;;;2069704;28;20498;-79
2023/03/09 02:40:12;;;;;;;9.43;5.95;;;;;;;;;;2070928;28;20037;-79
2023/03/09 02:41:31;;;;;;;8.95;5.45;;;;;;;;;;2070826;28;20573;-79
2023/03/09 02:42:50;;;;;;;14.13;6.35;;;;;;;;;;2071483;28;20037;-77
2023/03/09 02:44:10;;;;;;;13.95;6.55;;;;;;;;;;2075098;28;20037;-78
2023/03/09 02:45:29;;;;;;;12.93;6.13;;;;;;;;;;2067124;28;20034;-78
2023/03/09 02:46:49;;;;;;;12.43;6.90;;;;;;;;;;2068521;28;20030;-77
2023/03/09 02:48:07;;;;;;;14.80;6.88;;;;;;;;;;2062968;28;20034;-78
2023/03/09 02:49:27;;;;;;;12.52;6.88;;;;;;;;;;2060503;28;20038;-78
2023/03/09 02:50:46;;;;;;;10.75;7.07;;;;;;;;;;2067137;28;20038;-78
2023/03/09 02:52:05;;;;;;;11.57;7.35;;;;;;;;;;2072103;28;20491;-78
2023/03/09 02:53:24;;;;;;;12.13;7.22;;;;;;;;;;2072657;28;20045;-79
2023/03/09 02:54:43;;;;;;;12.57;6.60;;;;;;;;;;2071873;28;20025;-79
2023/03/09 02:56:02;;;;;;;14.63;6.93;;;;;;;;;;2070356;28;20029;-78
2023/03/09 02:57:21;;;;;;;11.52;6.78;;;;;;;;;;2077985;28;20025;-78
2023/03/09 02:58:40;;;;;;;14.82;6.78;;;;;;;;;;2068872;28;20034;-79
2023/03/09 02:59:59;;;;;;;10.70;7.05;;;;;;;;;;2067597;28;20025;-79
2023/03/09 03:01:18;;;;;;;12.40;6.50;;;;;;;;;;2072999;28;20025;-78
2023/03/09 03:02:37;;;;;;;10.15;6.88;;;;;;;;;;2065554;28;20025;-78
2023/03/09 03:03:56;;;;;;;12.55;7.07;;;;;;;;;;2065514;28;20130;-79
2023/03/09 03:05:15;;;;;;;12.38;7.03;;;;;;;;;;2065181;28;20037;-78
2023/03/09 03:06:34;;;;;;;11.55;7.07;;;;;;;;;;2062583;28;20030;-79
2023/03/09 03:07:53;;;;;;;11.98;7.13;;;;;;;;;;2069975;28;20498;-79
2023/03/09 03:09:12;;;;;;;16.63;7.80;;;;;;;;;;2069397;28;20478;-78
2023/03/09 03:10:31;;;;;;;12.70;7.10;;;;;;;;;;2070434;28;20046;-78
2023/03/09 03:11:50;;;;;;;10.40;6.80;;;;;;;;;;2078857;28;20113;-78
2023/03/09 03:13:09;;;;;;;13.38;7.63;;;;;;;;;;2074974;28;20682;-78
2023/03/09 03:14:27;;;;;;;13.43;7.90;;;;;;;;;;2064903;28;20037;-78
2023/03/09 03:15:46;;;;;;;14.30;8.18;;;;;;;;;;2071160;28;20487;-78
2023/03/09 03:17:05;;;;;;;12.85;7.57;;;;;;;;;;2073372;28;20487;-77
2023/03/09 03:18:24;;;;;;;21.25;9.02;;;;;;;;;;2071567;28;20246;-77
2023/03/09 03:19:43;;;;;;;15.40;8.18;;;;;;;;;;2063138;28;20022;-77
2023/03/09 03:21:02;;;;;;;12.77;7.10;;;;;;;;;;2069097;28;20417;-78
2023/03/09 03:22:21;;;;;;;13.35;7.45;;;;;;;;;;2075468;28;20029;-77
2023/03/09 03:23:40;;;;;;;11.20;6.53;;;;;;;;;;2062530;28;20030;-77
2023/03/09 03:24:58;;;;;;;9.85;6.43;;;;;;;;;;2077320;28;20471;-77
2023/03/09 03:26:18;;;;;;;10.77;6.65;;;;;;;;;;2062264;28;20069;-78
2023/03/09 03:27:37;;;;;;;16.52;7.10;;;;;;;;;;2068179;28;20030;-78
2023/03/09 03:28:56;;;;;;;13.65;6.68;;;;;;;;;;2077906;28;20018;-77
2023/03/09 03:30:15;;;;;;;11.43;7.05;;;;;;;;;;2079799;28;20029;-77
2023/03/09 03:31:34;;;;;;;11.02;6.43;;;;;;;;;;2073242;28;20021;-77
2023/03/09 03:32:53;;;;;;;15.35;6.40;;;;;;;;;;2063026;28;20042;-77
2023/03/09 03:34:13;;;;;;;14.82;6.75;;;;;;;;;;2064916;28;20018;-77
2023/03/09 03:35:32;;;;;;;12.23;6.30;;;;;;;;;;2060450;28;20487;-78
2023/03/09 03:36:50;;;;;;;12.35;6.47;;;;;;;;;;2061893;28;20046;-77
2023/03/09 03:38:10;;;;;;;14.32;7.47;;;;;;;;;;2061972;28;20034;-77
2023/03/09 03:39:29;;;;;;;13.25;6.93;;;;;;;;;;2061815;28;20027;-77
2023/03/09 03:40:48;;;;;;;10.70;6.25;;;;;;;;;;2062057;28;21964;-78
2023/03/09 03:42:07;;;;;;;20.33;7.45;;;;;;;;;;2069175;28;20041;-78
2023/03/09 03:43:26;;;;;;;14.35;6.82;;;;;;;;;;2072606;28;20048;-78
2023/03/09 03:44:45;;;;;;;15.88;6.60;;;;;;;;;;2067886;28;20144;-77
2023/03/09 03:46:04;;;;;;;14.30;7.60;;;;;;;;;;2065956;28;20049;-78
2023/03/09 03:47:23;;;;;;;12.10;7.28;;;;;;;;;;2068688;28;20030;-78
2023/03/09 03:48:42;;;;;;;13.93;7.55;;;;;;;;;;2072361;28;20033;-79
2023/03/09 03:50:01;;;;;;;12.80;6.65;;;;;;;;;;2066504;28;20187;-77
2023/03/09 03:51:20;;;;;;;14.48;6.82;;;;;;;;;;2064312;28;20042;-77
2023/03/09 03:52:39;;;;;;;14.20;6.95;;;;;;;;;;2069164;28;20359;-77
2023/03/09 03:53:58;;;;;;;11.38;6.50;;;;;;;;;;2062774;28;20041;-78
2023/03/09 03:55:17;;;;;;;13.95;7.03;;;;;;;;;;2063745;28;20022;-77
2023/03/09 03:56:36;;;;;;;15.43;6.90;;;;;;;;;;2060811;28;20018;-77
2023/03/09 03:57:55;;;;;;;12.13;7.45;;;;;;;;;;2070068;28;20376;-77
2023/03/09 03:59:14;;;;;;;13.95;7.15;;;;;;;;;;2073039;28;20022;-76
2023/03/09 04:00:33;;;;;;;13.07;6.78;;;;;;;;;;2066075;28;20117;-78
2023/03/09 04:01:52;;;;;;;10.63;6.82;;;;;;;;;;2075367;28;20108;-76
2023/03/09 04:03:10;;;;;;;14.07;7.30;;;;;;;;;;2077046;28;20029;-77
2023/03/09 04:04:29;;;;;;;13.45;6.35;;;;;;;;;;2075577;28;20390;-77
2023/03/09 04:05:49;;;;;;;13.65;7.47;;;;;;;;;;2074193;28;20473;-77
2023/03/09 04:07:08;;;;;;;10.75;6.22;;;;;;;;;;2073173;28;20037;-77
2023/03/09 04:08:27;;;;;;;10.70;6.40;;;;;;;;;;2072571;28;20037;-77
2023/03/09 04:09:46;;;;;;;12.35;6.88;;;;;;;;;;2064020;28;20452;-77
2023/03/09 04:11:06;;;;;;;11.13;6.53;;;;;;;;;;2060904;28;20030;-77
2023/03/09 04:12:25;;;;;;;11.38;6.55;;;;;;;;;;2059957;28;20533;-79
2023/03/09 04:13:48;;;;;;;9.70;6.35;;;;;;;;;;2061701;28;20026;-78
2023/03/09 04:15:07;;;;;;;9.40;6.25;;;;;;;;;;2060428;28;20202;-78
2023/03/09 04:16:27;;;;;;;14.20;6.80;;;;;;;;;;2065510;28;20033;-77
2023/03/09 04:17:47;;;;;;;11.27;6.25;;;;;;;;;;2067293;28;20471;-78
2023/03/09 04:19:06;;;;;;;12.07;7.07;;;;;;;;;;2071967;28;20025;-77
2023/03/09 04:20:26;;;;;;;13.75;6.93;;;;;;;;;;2072187;28;20054;-78
2023/03/09 04:21:45;;;;;;;11.40;7.35;;;;;;;;;;2063894;28;20029;-79
2023/03/09 04:23:04;;;;;;;9.70;6.85;;;;;;;;;;2067304;28;20239;-77
2023/03/09 04:24:22;;;;;;;10.45;7.18;;;;;;;;;;2076125;28;20038;-77
2023/03/09 04:25:41;;;;;;;13.95;7.25;;;;;;;;;;2072758;28;20029;-79
2023/03/09 04:27:00;;;;;;;13.35;7.25;;;;;;;;;;2072358;28;21283;-79
2023/03/09 04:28:19;;;;;;;10.57;6.95;;;;;;;;;;2061920;28;20149;-77
2023/03/09 04:29:39;;;;;;;10.80;7.13;;;;;;;;;;2070369;28;20068;-77
2023/03/09 04:30:58;;;;;;;12.77;7.13;;;;;;;;;;2074166;28;20793;-77
2023/03/09 04:32:17;;;;;;;12.23;7.28;;;;;;;;;;2078680;28;20041;-77
2023/03/09 04:33:36;;;;;;;9.73;6.85;;;;;;;;;;2070760;28;20030;-77
2023/03/09 04:34:55;;;;;;;11.13;6.90;;;;;;;;;;2072304;28;22818;-79
2023/03/09 04:36:14;;;;;;;10.40;7.10;;;;;;;;;;2066238;28;20147;-78
2023/03/09 04:37:33;;;;;;;12.15;7.38;;;;;;;;;;2064980;28;20166;-78
2023/03/09 04:38:52;;;;;;;9.70;6.70;;;;;;;;;;2068444;28;20124;-78
2023/03/09 04:40:12;;;;;;;15.18;8.15;;;;;;;;;;2072098;28;20030;-79
2023/03/09 04:41:31;;;;;;;14.90;8.57;;;;;;;;;;2064796;28;20031;-79
2023/03/09 04:42:49;;;;;;;13.70;8.25;;;;;;;;;;2059545;28;20066;-79
2023/03/09 04:44:08;;;;;;;17.80;8.20;;;;;;;;;;2071899;28;20029;-79
2023/03/09 04:45:27;;;;;;;10.80;7.22;;;;;;;;;;2078456;28;20029;-78
2023/03/09 04:46:46;;;;;;;12.68;7.43;;;;;;;;;;2071855;28;20125;-78
2023/03/09 04:48:05;;;;;;;12.48;7.80;;;;;;;;;;2075975;28;20049;-77
2023/03/09 04:49:24;;;;;;;12.25;7.07;;;;;;;;;;2072786;28;20029;-78
2023/03/09 04:50:44;;;;;;;9.15;6.95;;;;;;;;;;2071481;28;20034;-78
2023/03/09 04:52:03;;;;;;;9.88;6.72;;;;;;;;;;2063816;28;20030;-78
2023/03/09 04:53:22;;;;;;;12.38;6.78;;;;;;;;;;2068176;28;20029;-78
2023/03/09 04:54:42;;;;;;;10.15;7.32;;;;;;;;;;2068072;28;20026;-78
2023/03/09 04:56:01;;;;;;;11.63;7.45;;;;;;;;;;2065479;28;20034;-79
2023/03/09 04:57:21;;;;;;;10.52;6.97;;;;;;;;;;2067588;28;20022;-79
2023/03/09 04:58:40;;;;;;;10.45;7.25;;;;;;;;;;2069727;28;20036;-79
2023/03/09 04:59:59;;;;;;;10.15;7.32;;;;;;;;;;2061772;28;20509;-78
2023/03/09 05:01:18;;;;;;;8.65;6.40;;;;;;;;;;2067303;28;20052;-78
2023/03/09 05:02:38;;;;;;;16.33;7.50;;;;;;;;;;2075514;28;20037;-78
2023/03/09 05:03:57;;;;;;;9.32;6.40;;;;;;;;;;2063389;28;20042;-79
2023/03/09 05:05:19;;;;;;;9.50;8.02;;;;;;;;;;2068957;28;20053;-78
2023/03/09 05:06:38;;;;;;;16.47;7.40;;;;;;;;;;2072159;28;20069;-78
2023/03/09 05:07:57;;;;;;;9.02;7.25;;;;;;;;;;2065440;28;20860;-78
2023/03/09 05:09:16;;;;;;;11.40;7.85;;;;;;;;;;2068475;28;20411;-78
2023/03/09 05:10:35;;;;;;;9.00;8.00;;;;;;;;;;2071674;28;20034;-78
2023/03/09 05:11:54;;;;;;;11.98;8.27;;;;;;;;;;2063577;28;20034;-78
2023/03/09 05:13:13;;;;;;;15.27;8.70;;;;;;;;;;2058947;28;20041;-79
2023/03/09 05:14:32;;;;;;;16.98;8.75;;;;;;;;;;2069582;28;20033;-78
2023/03/09 05:15:51;;;;;;;11.52;8.15;;;;;;;;;;2075854;28;20021;-78
2023/03/09 05:17:10;;;;;;;14.50;8.90;;;;;;;;;;2066099;28;20026;-79
2023/03/09 05:18:29;;;;;;;11.30;8.77;;;;;;;;;;2065649;28;20022;-77
2023/03/09 05:19:49;;;;;;;15.65;9.38;;;;;;;;;;2069626;28;20034;-78
2023/03/09 05:21:08;;;;;;;12.90;9.05;;;;;;;;;;2070205;28;20112;-78
2023/03/09 05:22:27;;;;;;;16.08;9.32;;;;;;;;;;2062236;28;20031;-77
2023/03/09 05:23:46;;;;;;;14.73;8.63;;;;;;;;;;2064543;28;20113;-77
2023/03/09 05:25:06;;;;;;;11.30;8.10;;;;;;;;;;2064287;28;20022;-78
2023/03/09 05:26:27;;;;;;;10.90;7.82;;;;;;;;;;2067433;28;20030;-78
2023/03/09 05:27:46;;;;;;;13.63;8.50;;;;;;;;;;2066147;28;20037;-78
2023/03/09 05:29:05;;;;;;;13.05;8.45;;;;;;;;;;2067688;28;21064;-78
2023/03/09 05:30:25;;;;;;;12.20;8.43;;;;;;;;;;2068535;28;21623;-78
2023/03/09 05:31:44;;;;;;;18.13;9.05;;;;;;;;;;2063287;28;20038;-79
2023/03/09 05:33:03;;;;;;;11.80;8.38;;;;;;;;;;2079065;28;20029;-78
2023/03/09 05:34:22;;;;;;;10.10;8.02;;;;;;;;;;2084959;28;20049;-78
2023/03/09 05:35:41;;;;;;;10.20;7.28;;;;;;;;;;2075143;28;20026;-78
2023/03/09 05:37:01;;;;;;;13.93;7.50;;;;;;;;;;2078540;28;20029;-78
2023/03/09 05:38:20;;;;;;;9.98;7.50;;;;;;;;;;2079354;28;20029;-77
2023/03/09 05:39:39;;;;;;;13.35;7.78;;;;;;;;;;2083288;28;20026;-77
2023/03/09 05:41:04;;;;;;;12.07;8.48;;;;;;;;;;2084069;28;20723;-78
2023/03/09 05:42:23;;;;;;;11.50;7.75;;;;;;;;;;2078186;28;20037;-77
2023/03/09 05:43:42;;;;;;;11.57;7.88;;;;;;;;;;2079887;28;20033;-78
2023/03/09 05:45:03;;;;;;;17.75;8.05;;;;;;;;;;2080745;28;20037;-78
2023/03/09 05:46:23;;;;;;;13.45;7.68;;;;;;;;;;2081929;28;20029;-78
2023/03/09 05:47:42;;;;;;;13.07;7.40;;;;;;;;;;2081026;28;20783;-78
2023/03/09 05:49:01;;;;;;;13.65;8.20;;;;;;;;;;2081592;28;20041;-77
2023/03/09 05:50:20;;;;;;;13.18;8.00;;;;;;;;;;2075999;28;20037;-77
2023/03/09 05:51:39;;;;;;;15.30;7.93;;;;;;;;;;2080977;28;20033;-77
2023/03/09 05:52:58;;;;;;;14.00;7.88;;;;;;;;;;2072493;28;20860;-78
2023/03/09 05:54:17;;;;;;;13.90;8.88;;;;;;;;;;2070444;28;20026;-78
2023/03/09 05:55:37;;;;;;;10.48;7.45;;;;;;;;;;2075085;28;20715;-78
2023/03/09 05:56:56;;;;;;;15.00;8.35;;;;;;;;;;2079756;28;20034;-78
2023/03/09 05:58:15;;;;;;;12.18;7.93;;;;;;;;;;2074126;28;20021;-78
2023/03/09 05:59:34;;;;;;;15.57;7.38;;;;;;;;;;2072625;28;20022;-78
2023/03/09 06:00:53;;;;;;;10.00;7.10;;;;;;;;;;2079214;28;20026;-78
2023/03/09 06:02:12;;;;;;;15.05;7.40;;;;;;;;;;2070911;28;20034;-78
2023/03/09 06:03:31;;;;;;;13.38;7.13;;;;;;;;;;2071072;28;20025;-77
2023/03/09 06:04:50;;;;;;;13.35;7.15;;;;;;;;;;2077473;28;20025;-78
2023/03/09 06:06:09;;;;;;;9.45;6.72;;;;;;;;;;2080543;28;20116;-78
2023/03/09 06:07:28;;;;;;;14.45;7.70;;;;;;;;;;2080320;28;20558;-77
2023/03/09 06:08:47;;;;;;;11.15;7.00;;;;;;;;;;2075605;28;20038;-77
2023/03/09 06:10:06;;;;;;;16.33;7.15;;;;;;;;;;2075879;28;20482;-77
2023/03/09 06:11:25;;;;;;;10.77;7.15;;;;;;;;;;2081612;28;20060;-77
2023/03/09 06:12:44;;;;;;;13.02;7.68;;;;;;;;;;2079411;28;20029;-76
2023/03/09 06:14:03;;;;;;;12.88;7.72;;;;;;;;;;2079641;28;20030;-76
2023/03/09 06:15:22;;;;;;;13.60;7.90;;;;;;;;;;2074153;28;20506;-78
2023/03/09 06:16:42;;;;;;;19.67;8.60;;;;;;;;;;2070861;28;20030;-76
2023/03/09 06:18:01;;;;;;;14.82;8.20;;;;;;;;;;2076250;28;20030;-76
2023/03/09 06:19:20;;;;;;;16.15;8.18;;;;;;;;;;2072659;28;20025;-77
2023/03/09 06:20:38;;;;;;;14.70;7.13;;;;;;;;;;2072646;28;20030;-77
2023/03/09 06:21:57;;;;;;;10.82;7.50;;;;;;;;;;2078147;28;20041;-77
2023/03/09 06:23:16;;;;;;;21.17;8.40;;;;;;;;;;2073301;28;20069;-77
2023/03/09 06:24:35;;;;;;;12.95;7.97;;;;;;;;;;2077415;28;20030;-76
2023/03/09 06:25:54;;;;;;;19.48;9.60;;;;;;;;;;2078882;28;20026;-77
2023/03/09 06:27:13;;;;;;;13.75;8.02;;;;;;;;;;2074785;28;20030;-76
2023/03/09 06:28:32;;;;;;;18.10;8.80;;;;;;;;;;2080888;28;21341;-76
2023/03/09 06:29:54;;;;;;;20.25;9.10;;;;;;;;;;2078512;28;20499;-78
2023/03/09 06:31:14;;;;;;;18.98;9.57;;;;;;;;;;2080533;28;20486;-78
2023/03/09 06:32:34;;;;;;;21.65;9.60;;;;;;;;;;2070740;28;20037;-78
2023/03/09 06:33:53;;;;;;;16.33;8.73;;;;;;;;;;2070690;28;20018;-78
2023/03/09 06:35:12;;;;;;;15.20;8.70;;;;;;;;;;2077288;28;20029;-79
2023/03/09 06:36:32;;;;;;;23.95;10.20;;;;;;;;;;2072606;28;20037;-77
2023/03/09 06:37:51;;;;;;;13.07;7.60;;;;;;;;;;2070563;28;20030;-79
2023/03/09 06:39:10;;;;;;;24.75;10.18;;;;;;;;;;2065985;28;20049;-79
2023/03/09 06:40:29;;;;;;;22.42;9.82;;;;;;;;;;2076971;28;20042;-79
2023/03/09 06:41:49;;;;;;;14.75;7.90;;;;;;;;;;2069435;28;20037;-79
2023/03/09 06:43:08;;;;;;;12.38;7.07;;;;;;;;;;2065672;28;20041;-78
2023/03/09 06:44:27;;;;;;;15.98;7.53;;;;;;;;;;2071810;28;20037;-77
2023/03/09 06:45:46;;;;;;;12.32;7.03;;;;;;;;;;2073159;28;20394;-78
2023/03/09 06:47:06;;;;;;;12.57;7.50;;;;;;;;;;2075067;28;20037;-78
2023/03/09 06:48:25;;;;;;;13.93;7.03;;;;;;;;;;2079150;28;20968;-78
2023/03/09 06:49:44;;;;;;;12.90;6.95;;;;;;;;;;2079442;28;20498;-82
2023/03/09 06:51:03;;;;;;;12.93;7.88;;;;;;;;;;2072780;28;20033;-78
2023/03/09 06:52:23;;;;;;;15.45;7.35;;;;;;;;;;2071553;28;20511;-80
2023/03/09 06:53:42;;;;;;;13.18;7.03;;;;;;;;;;2078160;28;20032;-79
2023/03/09 06:55:02;;;;;;;13.38;7.18;;;;;;;;;;2070193;28;20030;-79
2023/03/09 06:56:20;;;;;;;9.80;6.63;;;;;;;;;;2075589;28;20022;-79
2023/03/09 06:57:39;;;;;;;10.52;7.10;;;;;;;;;;2072354;28;20030;-80
2023/03/09 06:58:58;;;;;;;16.67;6.75;;;;;;;;;;2069313;28;20022;-80
2023/03/09 07:00:17;;;;;;;14.93;6.65;;;;;;;;;;2078236;28;20029;-80
2023/03/09 07:01:36;;;;;;;13.30;7.32;;;;;;;;;;2072503;28;20113;-80
2023/03/09 07:02:55;;;;;;;16.98;7.03;;;;;;;;;;2071415;28;20030;-79
2023/03/09 07:04:14;;;;;;;11.25;7.30;;;;;;;;;;2079742;28;20033;-80
2023/03/09 07:05:33;;;;;;;12.50;6.38;;;;;;;;;;2079234;28;20030;-80
2023/03/09 07:06:52;;;;;;;13.48;7.25;;;;;;;;;;2067035;28;20038;-80
2023/03/09 07:08:12;;;;;;;11.25;6.95;;;;;;;;;;2075027;28;20025;-80
2023/03/09 07:09:33;;;;;;;14.18;6.95;;;;;;;;;;2079172;28;20037;-79
2023/03/09 07:10:54;;;;;;;13.30;6.75;;;;;;;;;;2080017;28;20489;-79
2023/03/09 07:12:13;;;;;;;9.70;6.95;;;;;;;;;;2076293;28;20033;-79
2023/03/09 07:13:32;;;;;;;9.80;7.55;;;;;;;;;;2078701;28;20025;-79
2023/03/09 07:14:51;;;;;;;13.45;7.63;;;;;;;;;;2079705;28;20030;-78
2023/03/09 07:16:10;;;;;;;13.60;7.18;;;;;;;;;;2080140;28;20029;-78
2023/03/09 07:17:29;;;;;;;12.02;7.45;;;;;;;;;;2080970;28;20029;-79
2023/03/09 07:18:50;;;;;;;15.20;7.88;;;;;;;;;;2073071;28;20084;-78
2023/03/09 07:20:10;;;;;;;10.52;7.22;;;;;;;;;;2078311;28;20033;-78
2023/03/09 07:21:29;;;;;;;15.05;8.15;;;;;;;;;;2081231;28;20407;-78
2023/03/09 07:22:48;;;;;;;14.00;8.52;;;;;;;;;;2078296;28;20410;-79
2023/03/09 07:24:07;;;;;;;17.88;8.70;;;;;;;;;;2083562;28;20055;-78
2023/03/09 07:25:27;;;;;;;13.68;8.07;;;;;;;;;;2073549;28;20112;-79
2023/03/09 07:26:46;;;;;;;13.40;8.73;;;;;;;;;;2075654;28;20037;-78
2023/03/09 07:28:07;;;;;;;12.57;8.02;;;;;;;;;;2078226;28;20042;-78
2023/03/09 07:29:26;;;;;;;12.35;7.43;;;;;;;;;;2079918;28;20041;-79
2023/03/09 07:30:45;;;;;;;10.75;7.07;;;;;;;;;;2073255;28;20057;-78
2023/03/09 07:32:04;;;;;;;12.48;7.82;;;;;;;;;;2078390;28;20033;-77
2023/03/09 07:33:23;;;;;;;14.18;7.13;;;;;;;;;;2080288;28;20120;-78
2023/03/09 07:34:42;;;;;;;9.68;6.28;;;;;;;;;;2077973;28;20406;-79
2023/03/09 07:36:02;;;;;;;7.63;5.95;;;;;;;;;;2080248;28;20112;-79
2023/03/09 07:37:21;;;;;;;6.38;5.72;;;;;;;;;;2072795;28;20018;-77
2023/03/09 07:38:40;;;;;;;9.77;6.25;;;;;;;;;;2069719;28;20029;-78
2023/03/09 07:39:59;;;;;;;9.80;6.53;;;;;;;;;;2069823;28;20030;-78
2023/03/09 07:41:18;;;;;;;14.70;5.40;;;;;;;;;;2076661;28;20029;-77
2023/03/09 07:42:37;;;;;;;10.35;6.05;;;;;;;;;;2077732;28;20399;-77
2023/03/09 07:43:57;;;;;;;9.80;6.03;;;;;;;;;;2074507;28;20057;-79
2023/03/09 07:45:17;;;;;;;9.57;5.65;;;;;;;;;;2073821;28;20029;-78
2023/03/09 07:46:36;;;;;;;8.95;5.68;;;;;;;;;;2079149;28;20490;-78
2023/03/09 07:47:55;;;;;;;7.88;5.82;;;;;;;;;;2077188;28;20034;-79
2023/03/09 07:49:14;;;;;;;8.38;5.82;;;;;;;;;;2069914;28;20038;-78
2023/03/09 07:50:33;;;;;;;7.35;6.00;;;;;;;;;;2068804;28;20042;-77
2023/03/09 07:51:52;;;;;;;12.88;7.22;;;;;;;;;;2076620;28;20033;-77